sensor_id;sensor_type;location;lat;lon;timestamp;P1;durP1;ratioP1;P2;durP2;ratioP2
81201;SDS011;71068;47.662;-2.750;2024-01-15T00:01:28;13.70;;;7.55;;
81201;SDS011;71068;47.662;-2.750;2024-01-15T00:03:56;17.55;;;7.63;;
81201;SDS011;71068;47.662;-2.750;2024-01-15T00:06:22;9.45;;;5.25;;
81201;SDS011;71068;47.662;-2.750;2024-01-15T00:08:48;11.98;;;6.20;;
81201;SDS011;71068;47.662;-2.750;2024-01-15T00:11:14;7.63;;;5.32;;
81201;SDS011;71068;47.662;-2.750;2024-01-15T00:13:40;10.80;;;5.90;;
81201;SDS011;71068;47.662;-2.750;2024-01-15T00:16:06;15.23;;;6.03;;
81201;SDS011;71068;47.662;-2.750;2024-01-15T00:18:32;14.48;;;7.10;;
81201;SDS011;71068;47.662;-2.750;2024-01-15T00:20:58;12.00;;;7.68;;
81201;SDS011;71068;47.662;-2.750;2024-01-15T00:23:27;11.43;;;6.07;;
81201;SDS011;71068;47.662;-2.750;2024-01-15T00:25:53;12.00;;;6.35;;
81201;SDS011;71068;47.662;-2.750;2024-01-15T00:28:18;11.88;;;5.45;;
81201;SDS011;71068;47.662;-2.750;2024-01-15T00:30:44;15.90;;;8.18;;
81201;SDS011;71068;47.662;-2.750;2024-01-15T00:33:10;13.85;;;6.68;;
81201;SDS011;71068;47.662;-2.750;2024-01-15T00:35:37;11.52;;;5.65;;
81201;SDS011;71068;47.662;-2.750;2024-01-15T00:38:03;23.35;;;8.95;;
81201;SDS011;71068;47.662;-2.750;2024-01-15T00:40:29;13.43;;;9.13;;
81201;SDS011;71068;47.662;-2.750;2024-01-15T00:42:55;26.30;;;9.82;;
81201;SDS011;71068;47.662;-2.750;2024-01-15T00:45:21;14.27;;;8.00;;
81201;SDS011;71068;47.662;-2.750;2024-01-15T00:47:47;14.93;;;7.72;;
81201;SDS011;71068;47.662;-2.750;2024-01-15T00:50:13;16.08;;;9.20;;
81201;SDS011;71068;47.662;-2.750;2024-01-15T00:52:40;15.15;;;7.20;;
81201;SDS011;71068;47.662;-2.750;2024-01-15T00:55:06;21.60;;;8.38;;
81201;SDS011;71068;47.662;-2.750;2024-01-15T00:57:32;23.00;;;13.07;;
81201;SDS011;71068;47.662;-2.750;2024-01-15T00:59:58;18.40;;;9.50;;
81201;SDS011;71068;47.662;-2.750;2024-01-15T01:02:24;6.55;;;5.05;;
81201;SDS011;71068;47.662;-2.750;2024-01-15T01:04:51;12.68;;;4.78;;
81201;SDS011;71068;47.662;-2.750;2024-01-15T01:07:17;9.90;;;4.70;;
81201;SDS011;71068;47.662;-2.750;2024-01-15T01:09:44;8.13;;;5.47;;
81201;SDS011;71068;47.662;-2.750;2024-01-15T01:12:10;11.13;;;6.15;;
81201;SDS011;71068;47.662;-2.750;2024-01-15T01:14:37;10.40;;;6.57;;
81201;SDS011;71068;47.662;-2.750;2024-01-15T01:17:03;7.95;;;5.80;;
81201;SDS011;71068;47.662;-2.750;2024-01-15T01:19:37;12.77;;;6.28;;
81201;SDS011;71068;47.662;-2.750;2024-01-15T01:22:04;8.05;;;4.35;;
81201;SDS011;71068;47.662;-2.750;2024-01-15T01:24:30;8.05;;;4.45;;
81201;SDS011;71068;47.662;-2.750;2024-01-15T01:26:57;10.02;;;5.13;;
81201;SDS011;71068;47.662;-2.750;2024-01-15T01:29:23;13.52;;;6.97;;
81201;SDS011;71068;47.662;-2.750;2024-01-15T01:31:49;6.22;;;4.93;;
81201;SDS011;71068;47.662;-2.750;2024-01-15T01:34:15;11.45;;;5.10;;
81201;SDS011;71068;47.662;-2.750;2024-01-15T01:36:42;9.98;;;5.78;;
81201;SDS011;71068;47.662;-2.750;2024-01-15T01:39:08;6.95;;;4.10;;
81201;SDS011;71068;47.662;-2.750;2024-01-15T01:41:35;11.07;;;5.50;;
81201;SDS011;71068;47.662;-2.750;2024-01-15T01:44:01;7.43;;;4.80;;
81201;SDS011;71068;47.662;-2.750;2024-01-15T01:46:28;8.68;;;4.65;;
81201;SDS011;71068;47.662;-2.750;2024-01-15T01:48:57;9.25;;;5.00;;
81201;SDS011;71068;47.662;-2.750;2024-01-15T01:51:26;7.88;;;4.78;;
81201;SDS011;71068;47.662;-2.750;2024-01-15T01:53:53;6.35;;;3.08;;
81201;SDS011;71068;47.662;-2.750;2024-01-15T01:56:19;10.95;;;5.95;;
81201;SDS011;71068;47.662;-2.750;2024-01-15T01:58:45;7.03;;;5.18;;
81201;SDS011;71068;47.662;-2.750;2024-01-15T02:01:13;6.22;;;4.53;;
81201;SDS011;71068;47.662;-2.750;2024-01-15T02:03:40;10.35;;;4.25;;
81201;SDS011;71068;47.662;-2.750;2024-01-15T02:06:06;4.43;;;3.47;;
81201;SDS011;71068;47.662;-2.750;2024-01-15T02:08:33;11.40;;;4.43;;
81201;SDS011;71068;47.662;-2.750;2024-01-15T02:11:00;6.88;;;4.60;;
81201;SDS011;71068;47.662;-2.750;2024-01-15T02:13:26;9.75;;;3.95;;
81201;SDS011;71068;47.662;-2.750;2024-01-15T02:15:52;11.88;;;5.88;;
81201;SDS011;71068;47.662;-2.750;2024-01-15T02:18:18;9.25;;;4.78;;
81201;SDS011;71068;47.662;-2.750;2024-01-15T02:20:45;8.43;;;5.15;;
81201;SDS011;71068;47.662;-2.750;2024-01-15T02:23:12;8.90;;;4.68;;
81201;SDS011;71068;47.662;-2.750;2024-01-15T02:25:45;12.55;;;6.28;;
81201;SDS011;71068;47.662;-2.750;2024-01-15T02:28:13;8.07;;;5.65;;
81201;SDS011;71068;47.662;-2.750;2024-01-15T02:30:41;10.13;;;4.75;;
81201;SDS011;71068;47.662;-2.750;2024-01-15T02:33:09;9.20;;;5.53;;
81201;SDS011;71068;47.662;-2.750;2024-01-15T02:35:36;11.15;;;5.75;;
81201;SDS011;71068;47.662;-2.750;2024-01-15T02:38:06;8.25;;;4.53;;
81201;SDS011;71068;47.662;-2.750;2024-01-15T02:40:33;9.60;;;4.35;;
81201;SDS011;71068;47.662;-2.750;2024-01-15T02:43:00;9.20;;;5.05;;
81201;SDS011;71068;47.662;-2.750;2024-01-15T02:45:26;6.63;;;4.30;;
81201;SDS011;71068;47.662;-2.750;2024-01-15T02:47:52;6.40;;;3.67;;
81201;SDS011;71068;47.662;-2.750;2024-01-15T02:50:18;5.30;;;4.53;;
81201;SDS011;71068;47.662;-2.750;2024-01-15T02:52:44;6.57;;;4.55;;
81201;SDS011;71068;47.662;-2.750;2024-01-15T02:55:10;7.88;;;3.88;;
81201;SDS011;71068;47.662;-2.750;2024-01-15T02:57:36;7.57;;;4.63;;
81201;SDS011;71068;47.662;-2.750;2024-01-15T03:00:02;8.73;;;4.57;;
81201;SDS011;71068;47.662;-2.750;2024-01-15T03:02:29;7.57;;;4.93;;
81201;SDS011;71068;47.662;-2.750;2024-01-15T03:04:57;4.57;;;3.58;;
81201;SDS011;71068;47.662;-2.750;2024-01-15T03:07:23;7.70;;;5.22;;
81201;SDS011;71068;47.662;-2.750;2024-01-15T03:09:49;8.25;;;4.40;;
81201;SDS011;71068;47.662;-2.750;2024-01-15T03:12:19;8.75;;;4.93;;
81201;SDS011;71068;47.662;-2.750;2024-01-15T03:14:44;6.20;;;3.85;;
81201;SDS011;71068;47.662;-2.750;2024-01-15T03:17:10;10.65;;;4.25;;
81201;SDS011;71068;47.662;-2.750;2024-01-15T03:19:37;9.55;;;4.05;;
81201;SDS011;71068;47.662;-2.750;2024-01-15T03:22:03;8.50;;;3.92;;
81201;SDS011;71068;47.662;-2.750;2024-01-15T03:24:33;7.18;;;4.43;;
81201;SDS011;71068;47.662;-2.750;2024-01-15T03:26:59;6.25;;;3.30;;
81201;SDS011;71068;47.662;-2.750;2024-01-15T03:29:25;10.70;;;4.90;;
81201;SDS011;71068;47.662;-2.750;2024-01-15T03:31:52;6.25;;;3.50;;
81201;SDS011;71068;47.662;-2.750;2024-01-15T03:34:18;5.45;;;3.45;;
81201;SDS011;71068;47.662;-2.750;2024-01-15T03:36:45;11.85;;;5.47;;
81201;SDS011;71068;47.662;-2.750;2024-01-15T03:39:11;6.57;;;3.78;;
81201;SDS011;71068;47.662;-2.750;2024-01-15T03:41:39;5.82;;;3.85;;
81201;SDS011;71068;47.662;-2.750;2024-01-15T03:44:05;10.88;;;4.18;;
81201;SDS011;71068;47.662;-2.750;2024-01-15T03:46:32;7.03;;;3.58;;
81201;SDS011;71068;47.662;-2.750;2024-01-15T03:48:57;4.68;;;3.20;;
81201;SDS011;71068;47.662;-2.750;2024-01-15T03:51:24;6.05;;;3.63;;
81201;SDS011;71068;47.662;-2.750;2024-01-15T03:53:50;3.17;;;2.65;;
81201;SDS011;71068;47.662;-2.750;2024-01-15T03:56:16;6.18;;;4.28;;
81201;SDS011;71068;47.662;-2.750;2024-01-15T03:58:45;3.22;;;1.95;;
81201;SDS011;71068;47.662;-2.750;2024-01-15T04:01:11;4.50;;;3.22;;
81201;SDS011;71068;47.662;-2.750;2024-01-15T04:03:37;9.23;;;4.70;;
81201;SDS011;71068;47.662;-2.750;2024-01-15T04:06:05;3.17;;;2.47;;
81201;SDS011;71068;47.662;-2.750;2024-01-15T04:08:33;4.07;;;2.92;;
81201;SDS011;71068;47.662;-2.750;2024-01-15T04:10:59;5.38;;;3.47;;
81201;SDS011;71068;47.662;-2.750;2024-01-15T04:13:26;4.25;;;2.72;;
81201;SDS011;71068;47.662;-2.750;2024-01-15T04:15:53;4.65;;;3.15;;
81201;SDS011;71068;47.662;-2.750;2024-01-15T04:18:19;8.35;;;3.72;;
81201;SDS011;71068;47.662;-2.750;2024-01-15T04:20:44;4.28;;;3.47;;
81201;SDS011;71068;47.662;-2.750;2024-01-15T04:23:10;5.47;;;3.47;;
81201;SDS011;71068;47.662;-2.750;2024-01-15T04:25:36;3.30;;;2.90;;
81201;SDS011;71068;47.662;-2.750;2024-01-15T04:28:02;3.83;;;2.90;;
81201;SDS011;71068;47.662;-2.750;2024-01-15T04:30:28;4.28;;;3.35;;
81201;SDS011;71068;47.662;-2.750;2024-01-15T04:32:54;6.45;;;4.88;;
81201;SDS011;71068;47.662;-2.750;2024-01-15T04:35:20;5.45;;;3.17;;
81201;SDS011;71068;47.662;-2.750;2024-01-15T04:37:46;4.63;;;2.83;;
81201;SDS011;71068;47.662;-2.750;2024-01-15T04:40:12;4.15;;;2.83;;
81201;SDS011;71068;47.662;-2.750;2024-01-15T04:42:38;7.15;;;3.05;;
81201;SDS011;71068;47.662;-2.750;2024-01-15T04:45:05;4.43;;;3.22;;
81201;SDS011;71068;47.662;-2.750;2024-01-15T04:47:31;5.28;;;2.33;;
81201;SDS011;71068;47.662;-2.750;2024-01-15T04:49:57;3.00;;;2.47;;
81201;SDS011;71068;47.662;-2.750;2024-01-15T04:52:23;2.72;;;2.53;;
81201;SDS011;71068;47.662;-2.750;2024-01-15T04:54:49;4.22;;;2.47;;
81201;SDS011;71068;47.662;-2.750;2024-01-15T04:57:15;3.85;;;1.88;;
81201;SDS011;71068;47.662;-2.750;2024-01-15T04:59:41;3.53;;;2.08;;
81201;SDS011;71068;47.662;-2.750;2024-01-15T05:02:07;4.25;;;2.70;;
81201;SDS011;71068;47.662;-2.750;2024-01-15T05:04:33;4.40;;;2.55;;
81201;SDS011;71068;47.662;-2.750;2024-01-15T05:06:59;4.10;;;3.38;;
81201;SDS011;71068;47.662;-2.750;2024-01-15T05:09:24;6.78;;;3.65;;
81201;SDS011;71068;47.662;-2.750;2024-01-15T05:11:50;4.90;;;3.08;;
81201;SDS011;71068;47.662;-2.750;2024-01-15T05:14:16;3.80;;;3.33;;
81201;SDS011;71068;47.662;-2.750;2024-01-15T05:16:48;3.40;;;2.22;;
81201;SDS011;71068;47.662;-2.750;2024-01-15T05:19:15;6.97;;;3.50;;
81201;SDS011;71068;47.662;-2.750;2024-01-15T05:21:41;4.97;;;3.05;;
81201;SDS011;71068;47.662;-2.750;2024-01-15T05:24:08;3.38;;;2.35;;
81201;SDS011;71068;47.662;-2.750;2024-01-15T05:26:34;3.42;;;2.90;;
81201;SDS011;71068;47.662;-2.750;2024-01-15T05:29:00;5.13;;;3.67;;
81201;SDS011;71068;47.662;-2.750;2024-01-15T05:31:26;5.00;;;2.95;;
81201;SDS011;71068;47.662;-2.750;2024-01-15T05:33:55;3.17;;;2.40;;
81201;SDS011;71068;47.662;-2.750;2024-01-15T05:36:21;3.70;;;3.40;;
81201;SDS011;71068;47.662;-2.750;2024-01-15T05:38:47;4.60;;;2.83;;
81201;SDS011;71068;47.662;-2.750;2024-01-15T05:41:13;3.33;;;2.65;;
81201;SDS011;71068;47.662;-2.750;2024-01-15T05:43:39;7.07;;;3.97;;
81201;SDS011;71068;47.662;-2.750;2024-01-15T05:46:05;5.05;;;2.90;;
81201;SDS011;71068;47.662;-2.750;2024-01-15T05:48:31;4.30;;;2.92;;
81201;SDS011;71068;47.662;-2.750;2024-01-15T05:50:57;3.72;;;2.72;;
81201;SDS011;71068;47.662;-2.750;2024-01-15T05:53:27;5.18;;;3.13;;
81201;SDS011;71068;47.662;-2.750;2024-01-15T05:55:53;4.25;;;3.00;;
81201;SDS011;71068;47.662;-2.750;2024-01-15T05:58:21;7.38;;;4.10;;
81201;SDS011;71068;47.662;-2.750;2024-01-15T06:00:47;2.83;;;2.60;;
81201;SDS011;71068;47.662;-2.750;2024-01-15T06:03:15;8.15;;;3.28;;
81201;SDS011;71068;47.662;-2.750;2024-01-15T06:05:41;6.07;;;3.60;;
81201;SDS011;71068;47.662;-2.750;2024-01-15T06:08:07;4.80;;;3.78;;
81201;SDS011;71068;47.662;-2.750;2024-01-15T06:10:33;6.35;;;3.47;;
81201;SDS011;71068;47.662;-2.750;2024-01-15T06:12:59;5.65;;;3.38;;
81201;SDS011;71068;47.662;-2.750;2024-01-15T06:15:25;4.07;;;3.20;;
81201;SDS011;71068;47.662;-2.750;2024-01-15T06:17:51;4.95;;;3.30;;
81201;SDS011;71068;47.662;-2.750;2024-01-15T06:20:17;5.10;;;2.97;;
81201;SDS011;71068;47.662;-2.750;2024-01-15T06:22:43;3.50;;;2.28;;
81201;SDS011;71068;47.662;-2.750;2024-01-15T06:25:09;3.20;;;2.45;;
81201;SDS011;71068;47.662;-2.750;2024-01-15T06:27:35;5.47;;;3.85;;
81201;SDS011;71068;47.662;-2.750;2024-01-15T06:30:01;4.15;;;3.13;;
81201;SDS011;71068;47.662;-2.750;2024-01-15T06:32:27;4.13;;;3.25;;
81201;SDS011;71068;47.662;-2.750;2024-01-15T06:34:54;5.38;;;3.60;;
81201;SDS011;71068;47.662;-2.750;2024-01-15T06:37:19;6.20;;;3.40;;
81201;SDS011;71068;47.662;-2.750;2024-01-15T06:39:46;6.47;;;3.35;;
81201;SDS011;71068;47.662;-2.750;2024-01-15T06:42:12;3.88;;;2.92;;
81201;SDS011;71068;47.662;-2.750;2024-01-15T06:44:38;4.70;;;3.45;;
81201;SDS011;71068;47.662;-2.750;2024-01-15T06:47:04;4.93;;;3.10;;
81201;SDS011;71068;47.662;-2.750;2024-01-15T06:49:30;7.40;;;3.70;;
81201;SDS011;71068;47.662;-2.750;2024-01-15T06:51:57;5.68;;;3.55;;
81201;SDS011;71068;47.662;-2.750;2024-01-15T06:54:22;4.68;;;3.00;;
81201;SDS011;71068;47.662;-2.750;2024-01-15T06:56:49;4.53;;;3.35;;
81201;SDS011;71068;47.662;-2.750;2024-01-15T06:59:15;4.03;;;2.92;;
81201;SDS011;71068;47.662;-2.750;2024-01-15T07:01:41;8.48;;;4.93;;
81201;SDS011;71068;47.662;-2.750;2024-01-15T07:04:07;6.03;;;3.15;;
81201;SDS011;71068;47.662;-2.750;2024-01-15T07:06:37;3.67;;;2.45;;
81201;SDS011;71068;47.662;-2.750;2024-01-15T07:09:04;5.95;;;4.47;;
81201;SDS011;71068;47.662;-2.750;2024-01-15T07:11:30;6.82;;;3.72;;
81201;SDS011;71068;47.662;-2.750;2024-01-15T07:13:56;5.63;;;3.00;;
81201;SDS011;71068;47.662;-2.750;2024-01-15T07:16:22;4.35;;;3.95;;
81201;SDS011;71068;47.662;-2.750;2024-01-15T07:18:48;5.22;;;4.28;;
81201;SDS011;71068;47.662;-2.750;2024-01-15T07:21:14;3.97;;;2.97;;
81201;SDS011;71068;47.662;-2.750;2024-01-15T07:23:40;4.80;;;3.78;;
81201;SDS011;71068;47.662;-2.750;2024-01-15T07:26:07;5.85;;;3.92;;
81201;SDS011;71068;47.662;-2.750;2024-01-15T07:28:34;5.45;;;3.83;;
81201;SDS011;71068;47.662;-2.750;2024-01-15T07:31:00;5.63;;;3.15;;
81201;SDS011;71068;47.662;-2.750;2024-01-15T07:33:27;7.25;;;4.47;;
81201;SDS011;71068;47.662;-2.750;2024-01-15T07:35:55;4.32;;;3.92;;
81201;SDS011;71068;47.662;-2.750;2024-01-15T07:38:21;5.93;;;3.35;;
81201;SDS011;71068;47.662;-2.750;2024-01-15T07:40:48;8.85;;;3.80;;
81201;SDS011;71068;47.662;-2.750;2024-01-15T07:43:14;9.02;;;4.43;;
81201;SDS011;71068;47.662;-2.750;2024-01-15T07:45:41;5.57;;;3.03;;
81201;SDS011;71068;47.662;-2.750;2024-01-15T07:48:07;6.13;;;3.85;;
81201;SDS011;71068;47.662;-2.750;2024-01-15T07:50:36;9.30;;;4.82;;
81201;SDS011;71068;47.662;-2.750;2024-01-15T07:53:04;5.57;;;3.08;;
81201;SDS011;71068;47.662;-2.750;2024-01-15T07:55:33;5.53;;;3.78;;
81201;SDS011;71068;47.662;-2.750;2024-01-15T07:57:59;5.78;;;3.30;;
81201;SDS011;71068;47.662;-2.750;2024-01-15T08:00:26;5.78;;;3.75;;
81201;SDS011;71068;47.662;-2.750;2024-01-15T08:02:55;9.18;;;6.22;;
81201;SDS011;71068;47.662;-2.750;2024-01-15T08:05:24;7.95;;;5.18;;
81201;SDS011;71068;47.662;-2.750;2024-01-15T08:07:53;5.07;;;3.88;;
81201;SDS011;71068;47.662;-2.750;2024-01-15T08:10:19;4.78;;;3.78;;
81201;SDS011;71068;47.662;-2.750;2024-01-15T08:12:45;3.70;;;3.38;;
81201;SDS011;71068;47.662;-2.750;2024-01-15T08:15:11;6.35;;;3.78;;
81201;SDS011;71068;47.662;-2.750;2024-01-15T08:17:41;12.88;;;4.75;;
81201;SDS011;71068;47.662;-2.750;2024-01-15T08:20:07;7.75;;;3.90;;
81201;SDS011;71068;47.662;-2.750;2024-01-15T08:22:33;7.10;;;4.22;;
81201;SDS011;71068;47.662;-2.750;2024-01-15T08:25:01;7.15;;;4.78;;
81201;SDS011;71068;47.662;-2.750;2024-01-15T08:27:29;10.13;;;3.72;;
81201;SDS011;71068;47.662;-2.750;2024-01-15T08:29:58;8.38;;;4.50;;
81201;SDS011;71068;47.662;-2.750;2024-01-15T08:32:24;4.65;;;3.35;;
81201;SDS011;71068;47.662;-2.750;2024-01-15T08:34:53;6.38;;;4.38;;
81201;SDS011;71068;47.662;-2.750;2024-01-15T08:37:21;7.65;;;3.75;;
81201;SDS011;71068;47.662;-2.750;2024-01-15T08:39:50;8.70;;;4.82;;
81201;SDS011;71068;47.662;-2.750;2024-01-15T08:42:16;7.30;;;4.43;;
81201;SDS011;71068;47.662;-2.750;2024-01-15T08:44:42;7.80;;;4.47;;
81201;SDS011;71068;47.662;-2.750;2024-01-15T08:47:08;5.80;;;3.40;;
81201;SDS011;71068;47.662;-2.750;2024-01-15T08:49:35;8.23;;;3.92;;
81201;SDS011;71068;47.662;-2.750;2024-01-15T08:52:02;6.68;;;3.65;;
81201;SDS011;71068;47.662;-2.750;2024-01-15T08:54:28;6.45;;;3.78;;
81201;SDS011;71068;47.662;-2.750;2024-01-15T08:56:57;7.63;;;4.15;;
81201;SDS011;71068;47.662;-2.750;2024-01-15T08:59:26;6.63;;;4.65;;
81201;SDS011;71068;47.662;-2.750;2024-01-15T09:01:52;6.63;;;4.53;;
81201;SDS011;71068;47.662;-2.750;2024-01-15T09:04:18;6.88;;;4.22;;
81201;SDS011;71068;47.662;-2.750;2024-01-15T09:06:45;5.70;;;4.53;;
81201;SDS011;71068;47.662;-2.750;2024-01-15T09:09:14;2.97;;;2.45;;
81201;SDS011;71068;47.662;-2.750;2024-01-15T09:11:40;7.13;;;3.95;;
81201;SDS011;71068;47.662;-2.750;2024-01-15T09:14:06;7.13;;;4.28;;
81201;SDS011;71068;47.662;-2.750;2024-01-15T09:16:33;9.68;;;5.25;;
81201;SDS011;71068;47.662;-2.750;2024-01-15T09:18:59;7.95;;;4.10;;
81201;SDS011;71068;47.662;-2.750;2024-01-15T09:21:26;4.13;;;2.63;;
81201;SDS011;71068;47.662;-2.750;2024-01-15T09:23:55;6.68;;;5.10;;
81201;SDS011;71068;47.662;-2.750;2024-01-15T09:26:21;8.07;;;5.28;;
81201;SDS011;71068;47.662;-2.750;2024-01-15T09:28:50;5.63;;;3.92;;
81201;SDS011;71068;47.662;-2.750;2024-01-15T09:31:17;7.60;;;4.55;;
81201;SDS011;71068;47.662;-2.750;2024-01-15T09:33:48;7.53;;;4.00;;
81201;SDS011;71068;47.662;-2.750;2024-01-15T09:38:44;8.57;;;4.30;;
81201;SDS011;71068;47.662;-2.750;2024-01-15T09:41:11;8.65;;;4.95;;
81201;SDS011;71068;47.662;-2.750;2024-01-15T09:43:37;6.13;;;3.97;;
81201;SDS011;71068;47.662;-2.750;2024-01-15T09:46:03;7.72;;;5.25;;
81201;SDS011;71068;47.662;-2.750;2024-01-15T09:48:30;5.13;;;4.07;;
81201;SDS011;71068;47.662;-2.750;2024-01-15T09:51:01;5.13;;;3.70;;
81201;SDS011;71068;47.662;-2.750;2024-01-15T09:53:31;7.20;;;3.00;;
81201;SDS011;71068;47.662;-2.750;2024-01-15T09:55:57;6.32;;;4.45;;
81201;SDS011;71068;47.662;-2.750;2024-01-15T09:58:27;11.63;;;4.15;;
81201;SDS011;71068;47.662;-2.750;2024-01-15T10:00:59;7.13;;;3.95;;
81201;SDS011;71068;47.662;-2.750;2024-01-15T10:03:26;7.68;;;5.00;;
81201;SDS011;71068;47.662;-2.750;2024-01-15T10:05:52;9.18;;;4.53;;
81201;SDS011;71068;47.662;-2.750;2024-01-15T10:08:22;7.50;;;4.72;;
81201;SDS011;71068;47.662;-2.750;2024-01-15T10:10:50;3.75;;;3.03;;
81201;SDS011;71068;47.662;-2.750;2024-01-15T10:13:19;12.98;;;4.40;;
81201;SDS011;71068;47.662;-2.750;2024-01-15T10:15:49;5.85;;;3.83;;
81201;SDS011;71068;47.662;-2.750;2024-01-15T10:18:15;6.32;;;4.93;;
81201;SDS011;71068;47.662;-2.750;2024-01-15T10:20:44;4.30;;;3.50;;
81201;SDS011;71068;47.662;-2.750;2024-01-15T10:23:14;6.85;;;4.35;;
81201;SDS011;71068;47.662;-2.750;2024-01-15T10:25:43;6.45;;;4.95;;
81201;SDS011;71068;47.662;-2.750;2024-01-15T10:28:13;8.48;;;5.32;;
81201;SDS011;71068;47.662;-2.750;2024-01-15T10:30:42;6.97;;;3.78;;
81201;SDS011;71068;47.662;-2.750;2024-01-15T10:33:08;9.93;;;4.45;;
81201;SDS011;71068;47.662;-2.750;2024-01-15T10:35:37;12.02;;;5.35;;
81201;SDS011;71068;47.662;-2.750;2024-01-15T10:38:05;8.52;;;5.38;;
81201;SDS011;71068;47.662;-2.750;2024-01-15T10:40:31;6.72;;;4.70;;
81201;SDS011;71068;47.662;-2.750;2024-01-15T10:42:57;8.30;;;5.57;;
81201;SDS011;71068;47.662;-2.750;2024-01-15T10:45:26;7.88;;;5.78;;
81201;SDS011;71068;47.662;-2.750;2024-01-15T10:47:55;8.60;;;4.15;;
81201;SDS011;71068;47.662;-2.750;2024-01-15T10:50:29;7.85;;;5.78;;
81201;SDS011;71068;47.662;-2.750;2024-01-15T10:52:59;9.88;;;4.43;;
81201;SDS011;71068;47.662;-2.750;2024-01-15T10:55:25;8.05;;;4.45;;
81201;SDS011;71068;47.662;-2.750;2024-01-15T10:57:52;9.60;;;5.47;;
81201;SDS011;71068;47.662;-2.750;2024-01-15T11:00:19;8.55;;;4.47;;
81201;SDS011;71068;47.662;-2.750;2024-01-15T11:02:46;7.55;;;4.38;;
81201;SDS011;71068;47.662;-2.750;2024-01-15T11:05:12;8.55;;;3.72;;
81201;SDS011;71068;47.662;-2.750;2024-01-15T11:07:39;7.78;;;3.95;;
81201;SDS011;71068;47.662;-2.750;2024-01-15T11:10:37;6.60;;;3.97;;
81201;SDS011;71068;47.662;-2.750;2024-01-15T11:13:15;6.60;;;3.42;;
81201;SDS011;71068;47.662;-2.750;2024-01-15T11:16:06;4.35;;;2.70;;
81201;SDS011;71068;47.662;-2.750;2024-01-15T11:21:26;5.25;;;3.53;;
81201;SDS011;71068;47.662;-2.750;2024-01-15T11:29:00;6.82;;;3.75;;
81201;SDS011;71068;47.662;-2.750;2024-01-15T11:34:08;7.78;;;3.45;;
81201;SDS011;71068;47.662;-2.750;2024-01-15T11:41:59;6.53;;;2.72;;
81201;SDS011;71068;47.662;-2.750;2024-01-15T11:44:27;3.53;;;2.00;;
81201;SDS011;71068;47.662;-2.750;2024-01-15T11:46:57;5.18;;;2.35;;
81201;SDS011;71068;47.662;-2.750;2024-01-15T11:49:38;4.15;;;2.05;;
81201;SDS011;71068;47.662;-2.750;2024-01-15T11:52:41;6.43;;;3.17;;
81201;SDS011;71068;47.662;-2.750;2024-01-15T11:58:12;3.78;;;1.83;;
81201;SDS011;71068;47.662;-2.750;2024-01-15T12:00:40;5.47;;;3.00;;
81201;SDS011;71068;47.662;-2.750;2024-01-15T12:03:12;3.92;;;1.85;;
81201;SDS011;71068;47.662;-2.750;2024-01-15T12:05:46;1.63;;;1.52;;
81201;SDS011;71068;47.662;-2.750;2024-01-15T12:08:12;11.27;;;2.92;;
81201;SDS011;71068;47.662;-2.750;2024-01-15T12:10:41;6.82;;;2.08;;
81201;SDS011;71068;47.662;-2.750;2024-01-15T12:13:11;2.58;;;2.13;;
81201;SDS011;71068;47.662;-2.750;2024-01-15T12:15:42;1.83;;;1.40;;
81201;SDS011;71068;47.662;-2.750;2024-01-15T12:18:13;4.88;;;2.50;;
81201;SDS011;71068;47.662;-2.750;2024-01-15T12:20:46;5.18;;;2.13;;
81201;SDS011;71068;47.662;-2.750;2024-01-15T12:23:12;4.30;;;2.03;;
81201;SDS011;71068;47.662;-2.750;2024-01-15T12:25:44;3.10;;;1.75;;
81201;SDS011;71068;47.662;-2.750;2024-01-15T12:28:12;4.22;;;1.85;;
81201;SDS011;71068;47.662;-2.750;2024-01-15T12:30:40;2.35;;;1.70;;
81201;SDS011;71068;47.662;-2.750;2024-01-15T12:33:07;1.83;;;1.58;;
81201;SDS011;71068;47.662;-2.750;2024-01-15T12:35:33;5.43;;;1.83;;
81201;SDS011;71068;47.662;-2.750;2024-01-15T12:38:00;1.92;;;1.05;;
81201;SDS011;71068;47.662;-2.750;2024-01-15T12:40:30;3.03;;;1.30;;
81201;SDS011;71068;47.662;-2.750;2024-01-15T12:43:03;3.13;;;1.92;;
81201;SDS011;71068;47.662;-2.750;2024-01-15T12:45:34;4.40;;;1.77;;
81201;SDS011;71068;47.662;-2.750;2024-01-15T12:48:03;4.22;;;1.48;;
81201;SDS011;71068;47.662;-2.750;2024-01-15T12:50:32;2.58;;;1.25;;
81201;SDS011;71068;47.662;-2.750;2024-01-15T12:52:59;1.10;;;0.80;;
81201;SDS011;71068;47.662;-2.750;2024-01-15T12:55:26;1.38;;;1.27;;
81201;SDS011;71068;47.662;-2.750;2024-01-15T12:57:52;1.42;;;1.33;;
81201;SDS011;71068;47.662;-2.750;2024-01-15T13:00:20;1.88;;;1.77;;
81201;SDS011;71068;47.662;-2.750;2024-01-15T13:02:52;1.63;;;1.52;;
81201;SDS011;71068;47.662;-2.750;2024-01-15T13:05:25;2.53;;;1.40;;
81201;SDS011;71068;47.662;-2.750;2024-01-15T13:07:57;2.05;;;1.27;;
81201;SDS011;71068;47.662;-2.750;2024-01-15T13:10:24;2.03;;;1.25;;
81201;SDS011;71068;47.662;-2.750;2024-01-15T13:12:53;1.45;;;1.35;;
81201;SDS011;71068;47.662;-2.750;2024-01-15T13:15:19;1.67;;;1.20;;
81201;SDS011;71068;47.662;-2.750;2024-01-15T13:17:48;4.97;;;1.88;;
81201;SDS011;71068;47.662;-2.750;2024-01-15T13:20:16;1.95;;;0.75;;
81201;SDS011;71068;47.662;-2.750;2024-01-15T13:22:43;3.45;;;1.50;;
81201;SDS011;71068;47.662;-2.750;2024-01-15T13:27:38;1.65;;;1.20;;
81201;SDS011;71068;47.662;-2.750;2024-01-15T13:30:04;1.17;;;1.15;;
81201;SDS011;71068;47.662;-2.750;2024-01-15T13:32:32;2.03;;;1.40;;
81201;SDS011;71068;47.662;-2.750;2024-01-15T13:34:59;3.30;;;1.05;;
81201;SDS011;71068;47.662;-2.750;2024-01-15T13:37:25;2.00;;;1.17;;
81201;SDS011;71068;47.662;-2.750;2024-01-15T13:39:51;1.42;;;1.33;;
81201;SDS011;71068;47.662;-2.750;2024-01-15T13:42:17;1.20;;;1.10;;
81201;SDS011;71068;47.662;-2.750;2024-01-15T13:44:43;1.40;;;1.30;;
81201;SDS011;71068;47.662;-2.750;2024-01-15T13:47:12;1.20;;;1.15;;
81201;SDS011;71068;47.662;-2.750;2024-01-15T13:49:38;0.90;;;0.90;;
81201;SDS011;71068;47.662;-2.750;2024-01-15T13:52:04;1.55;;;1.00;;
81201;SDS011;71068;47.662;-2.750;2024-01-15T13:54:31;3.85;;;0.95;;
81201;SDS011;71068;47.662;-2.750;2024-01-15T13:56:56;2.38;;;2.10;;
81201;SDS011;71068;47.662;-2.750;2024-01-15T13:59:26;1.75;;;1.30;;
81201;SDS011;71068;47.662;-2.750;2024-01-15T14:01:52;2.03;;;1.25;;
81201;SDS011;71068;47.662;-2.750;2024-01-15T14:04:18;2.33;;;1.17;;
81201;SDS011;71068;47.662;-2.750;2024-01-15T14:06:44;1.25;;;1.00;;
81201;SDS011;71068;47.662;-2.750;2024-01-15T14:11:40;2.47;;;1.30;;
81201;SDS011;71068;47.662;-2.750;2024-01-15T14:14:06;1.38;;;1.10;;
81201;SDS011;71068;47.662;-2.750;2024-01-15T14:16:34;3.33;;;1.50;;
81201;SDS011;71068;47.662;-2.750;2024-01-15T14:19:00;0.90;;;0.88;;
81201;SDS011;71068;47.662;-2.750;2024-01-15T14:21:28;2.05;;;1.42;;
81201;SDS011;71068;47.662;-2.750;2024-01-15T14:23:54;2.85;;;1.90;;
81201;SDS011;71068;47.662;-2.750;2024-01-15T14:26:21;2.65;;;1.10;;
81201;SDS011;71068;47.662;-2.750;2024-01-15T14:28:47;5.35;;;1.63;;
81201;SDS011;71068;47.662;-2.750;2024-01-15T14:31:14;1.63;;;1.20;;
81201;SDS011;71068;47.662;-2.750;2024-01-15T14:33:40;1.60;;;1.50;;
81201;SDS011;71068;47.662;-2.750;2024-01-15T14:36:06;1.17;;;1.02;;
81201;SDS011;71068;47.662;-2.750;2024-01-15T14:38:32;1.25;;;1.15;;
81201;SDS011;71068;47.662;-2.750;2024-01-15T14:41:00;2.90;;;1.50;;
81201;SDS011;71068;47.662;-2.750;2024-01-15T14:43:26;2.75;;;1.42;;
81201;SDS011;71068;47.662;-2.750;2024-01-15T14:45:52;1.17;;;1.08;;
81201;SDS011;71068;47.662;-2.750;2024-01-15T14:48:23;3.30;;;1.02;;
81201;SDS011;71068;47.662;-2.750;2024-01-15T14:50:50;7.05;;;1.92;;
81201;SDS011;71068;47.662;-2.750;2024-01-15T14:53:20;1.73;;;1.23;;
81201;SDS011;71068;47.662;-2.750;2024-01-15T14:55:46;1.35;;;1.25;;
81201;SDS011;71068;47.662;-2.750;2024-01-15T14:58:17;1.00;;;1.00;;
81201;SDS011;71068;47.662;-2.750;2024-01-15T15:00:43;1.00;;;1.00;;